sensor_id;sensor_type;location;lat;lon;timestamp;P1;durP1;ratioP1;P2;durP2;ratioP2
79460;SDS011;68929;42.666;23.324;2023-11-21T00:01:51;16.50;;;11.68;;
79460;SDS011;68929;42.666;23.324;2023-11-21T00:04:17;17.95;;;11.30;;
79460;SDS011;68929;42.666;23.324;2023-11-21T00:06:42;17.70;;;11.00;;
79460;SDS011;68929;42.666;23.324;2023-11-21T00:09:07;17.17;;;10.98;;
79460;SDS011;68929;42.666;23.324;2023-11-21T00:11:33;16.60;;;12.05;;
79460;SDS011;68929;42.666;23.324;2023-11-21T00:13:59;19.85;;;11.45;;
79460;SDS011;68929;42.666;23.324;2023-11-21T00:16:24;18.30;;;11.20;;
79460;SDS011;68929;42.666;23.324;2023-11-21T00:18:50;20.27;;;11.93;;
79460;SDS011;68929;42.666;23.324;2023-11-21T00:21:16;19.33;;;11.27;;
79460;SDS011;68929;42.666;23.324;2023-11-21T00:23:42;21.48;;;12.52;;
79460;SDS011;68929;42.666;23.324;2023-11-21T00:26:08;21.50;;;12.68;;
79460;SDS011;68929;42.666;23.324;2023-11-21T00:28:33;15.40;;;11.43;;
79460;SDS011;68929;42.666;23.324;2023-11-21T00:30:59;19.85;;;11.07;;
79460;SDS011;68929;42.666;23.324;2023-11-21T00:33:24;16.58;;;10.82;;
79460;SDS011;68929;42.666;23.324;2023-11-21T00:35:50;20.08;;;12.45;;
79460;SDS011;68929;42.666;23.324;2023-11-21T00:38:16;18.75;;;12.48;;
79460;SDS011;68929;42.666;23.324;2023-11-21T00:40:44;16.95;;;12.25;;
79460;SDS011;68929;42.666;23.324;2023-11-21T00:43:10;18.67;;;11.52;;
79460;SDS011;68929;42.666;23.324;2023-11-21T00:45:35;19.25;;;12.55;;
79460;SDS011;68929;42.666;23.324;2023-11-21T00:48:01;18.17;;;12.27;;
79460;SDS011;68929;42.666;23.324;2023-11-21T00:50:29;18.70;;;13.23;;
79460;SDS011;68929;42.666;23.324;2023-11-21T00:52:55;20.75;;;13.20;;
79460;SDS011;68929;42.666;23.324;2023-11-21T00:55:21;20.52;;;13.57;;
79460;SDS011;68929;42.666;23.324;2023-11-21T00:57:46;18.48;;;12.55;;
79460;SDS011;68929;42.666;23.324;2023-11-21T01:00:12;17.88;;;12.27;;
79460;SDS011;68929;42.666;23.324;2023-11-21T01:02:42;17.38;;;12.95;;
79460;SDS011;68929;42.666;23.324;2023-11-21T01:05:09;19.00;;;11.52;;
79460;SDS011;68929;42.666;23.324;2023-11-21T01:07:35;18.98;;;12.52;;
79460;SDS011;68929;42.666;23.324;2023-11-21T01:10:01;19.75;;;12.73;;
79460;SDS011;68929;42.666;23.324;2023-11-21T01:12:28;18.83;;;13.32;;
79460;SDS011;68929;42.666;23.324;2023-11-21T01:14:53;20.25;;;13.32;;
79460;SDS011;68929;42.666;23.324;2023-11-21T01:17:19;21.80;;;11.57;;
79460;SDS011;68929;42.666;23.324;2023-11-21T01:19:44;17.77;;;12.95;;
79460;SDS011;68929;42.666;23.324;2023-11-21T01:22:10;18.52;;;13.63;;
79460;SDS011;68929;42.666;23.324;2023-11-21T01:24:37;21.98;;;13.80;;
79460;SDS011;68929;42.666;23.324;2023-11-21T01:27:02;25.77;;;14.00;;
79460;SDS011;68929;42.666;23.324;2023-11-21T01:29:29;21.63;;;14.70;;
79460;SDS011;68929;42.666;23.324;2023-11-21T01:31:55;22.35;;;13.50;;
79460;SDS011;68929;42.666;23.324;2023-11-21T01:34:22;20.55;;;12.35;;
79460;SDS011;68929;42.666;23.324;2023-11-21T01:36:48;21.15;;;11.85;;
79460;SDS011;68929;42.666;23.324;2023-11-21T01:39:14;19.38;;;12.32;;
79460;SDS011;68929;42.666;23.324;2023-11-21T01:41:41;19.05;;;11.95;;
79460;SDS011;68929;42.666;23.324;2023-11-21T01:44:09;17.65;;;12.07;;
79460;SDS011;68929;42.666;23.324;2023-11-21T01:46:35;17.77;;;12.93;;
79460;SDS011;68929;42.666;23.324;2023-11-21T01:49:01;15.52;;;11.57;;
79460;SDS011;68929;42.666;23.324;2023-11-21T01:51:26;18.85;;;11.77;;
79460;SDS011;68929;42.666;23.324;2023-11-21T01:53:52;16.77;;;11.60;;
79460;SDS011;68929;42.666;23.324;2023-11-21T01:56:17;19.83;;;12.95;;
79460;SDS011;68929;42.666;23.324;2023-11-21T01:58:43;15.50;;;10.32;;
79460;SDS011;68929;42.666;23.324;2023-11-21T02:01:09;14.98;;;10.90;;
79460;SDS011;68929;42.666;23.324;2023-11-21T02:03:35;17.52;;;11.98;;
79460;SDS011;68929;42.666;23.324;2023-11-21T02:06:00;18.55;;;11.73;;
79460;SDS011;68929;42.666;23.324;2023-11-21T02:08:26;16.63;;;11.50;;
79460;SDS011;68929;42.666;23.324;2023-11-21T02:10:52;19.38;;;13.07;;
79460;SDS011;68929;42.666;23.324;2023-11-21T02:13:17;17.40;;;12.40;;
79460;SDS011;68929;42.666;23.324;2023-11-21T02:15:43;15.98;;;11.63;;
79460;SDS011;68929;42.666;23.324;2023-11-21T02:18:08;19.30;;;12.13;;
79460;SDS011;68929;42.666;23.324;2023-11-21T02:20:36;18.42;;;12.50;;
79460;SDS011;68929;42.666;23.324;2023-11-21T02:23:04;20.90;;;12.48;;
79460;SDS011;68929;42.666;23.324;2023-11-21T02:25:31;19.60;;;11.85;;
79460;SDS011;68929;42.666;23.324;2023-11-21T02:28:01;17.67;;;12.50;;
79460;SDS011;68929;42.666;23.324;2023-11-21T02:30:28;20.30;;;14.63;;
79460;SDS011;68929;42.666;23.324;2023-11-21T02:32:55;21.88;;;14.07;;
79460;SDS011;68929;42.666;23.324;2023-11-21T02:35:23;22.38;;;15.43;;
79460;SDS011;68929;42.666;23.324;2023-11-21T02:37:51;22.42;;;14.32;;
79460;SDS011;68929;42.666;23.324;2023-11-21T02:40:16;17.55;;;12.05;;
79460;SDS011;68929;42.666;23.324;2023-11-21T02:42:45;21.35;;;13.00;;
79460;SDS011;68929;42.666;23.324;2023-11-21T02:45:16;19.33;;;13.07;;
79460;SDS011;68929;42.666;23.324;2023-11-21T02:47:45;21.75;;;12.73;;
79460;SDS011;68929;42.666;23.324;2023-11-21T02:50:10;21.70;;;13.30;;
79460;SDS011;68929;42.666;23.324;2023-11-21T02:52:36;20.85;;;14.38;;
79460;SDS011;68929;42.666;23.324;2023-11-21T02:55:02;21.65;;;14.10;;
79460;SDS011;68929;42.666;23.324;2023-11-21T02:57:28;24.00;;;12.40;;
79460;SDS011;68929;42.666;23.324;2023-11-21T02:59:54;20.13;;;12.40;;
79460;SDS011;68929;42.666;23.324;2023-11-21T03:02:20;16.75;;;11.40;;
79460;SDS011;68929;42.666;23.324;2023-11-21T03:04:45;20.20;;;12.85;;
79460;SDS011;68929;42.666;23.324;2023-11-21T03:07:13;18.40;;;13.02;;
79460;SDS011;68929;42.666;23.324;2023-11-21T03:09:41;21.40;;;13.65;;
79460;SDS011;68929;42.666;23.324;2023-11-21T03:12:07;21.13;;;12.85;;
79460;SDS011;68929;42.666;23.324;2023-11-21T03:14:33;20.42;;;12.68;;
79460;SDS011;68929;42.666;23.324;2023-11-21T03:16:59;21.23;;;13.32;;
79460;SDS011;68929;42.666;23.324;2023-11-21T03:19:24;20.92;;;12.68;;
79460;SDS011;68929;42.666;23.324;2023-11-21T03:21:50;21.27;;;13.70;;
79460;SDS011;68929;42.666;23.324;2023-11-21T03:24:18;21.30;;;13.68;;
79460;SDS011;68929;42.666;23.324;2023-11-21T03:26:45;22.25;;;14.07;;
79460;SDS011;68929;42.666;23.324;2023-11-21T03:29:11;24.33;;;15.43;;
79460;SDS011;68929;42.666;23.324;2023-11-21T03:31:37;19.90;;;13.85;;
79460;SDS011;68929;42.666;23.324;2023-11-21T03:34:03;21.30;;;15.20;;
79460;SDS011;68929;42.666;23.324;2023-11-21T03:36:28;25.60;;;16.35;;
79460;SDS011;68929;42.666;23.324;2023-11-21T03:38:54;20.02;;;14.27;;
79460;SDS011;68929;42.666;23.324;2023-11-21T03:41:20;23.83;;;15.07;;
79460;SDS011;68929;42.666;23.324;2023-11-21T03:43:46;22.45;;;14.90;;
79460;SDS011;68929;42.666;23.324;2023-11-21T03:46:11;22.08;;;13.07;;
79460;SDS011;68929;42.666;23.324;2023-11-21T03:48:37;22.90;;;14.60;;
79460;SDS011;68929;42.666;23.324;2023-11-21T03:51:03;21.35;;;13.98;;
79460;SDS011;68929;42.666;23.324;2023-11-21T03:53:28;22.63;;;14.57;;
79460;SDS011;68929;42.666;23.324;2023-11-21T03:55:54;33.20;;;18.48;;
79460;SDS011;68929;42.666;23.324;2023-11-21T03:58:19;20.58;;;15.52;;
79460;SDS011;68929;42.666;23.324;2023-11-21T04:00:46;24.52;;;16.25;;
79460;SDS011;68929;42.666;23.324;2023-11-21T04:03:12;25.60;;;17.63;;
79460;SDS011;68929;42.666;23.324;2023-11-21T04:05:38;30.30;;;19.70;;
79460;SDS011;68929;42.666;23.324;2023-11-21T04:08:04;23.25;;;15.75;;
79460;SDS011;68929;42.666;23.324;2023-11-21T04:10:29;28.63;;;20.00;;
79460;SDS011;68929;42.666;23.324;2023-11-21T04:12:55;30.20;;;20.33;;
79460;SDS011;68929;42.666;23.324;2023-11-21T04:15:20;23.83;;;17.05;;
79460;SDS011;68929;42.666;23.324;2023-11-21T04:17:45;27.92;;;20.35;;
79460;SDS011;68929;42.666;23.324;2023-11-21T04:20:11;28.70;;;18.10;;
79460;SDS011;68929;42.666;23.324;2023-11-21T04:22:37;30.20;;;19.38;;
79460;SDS011;68929;42.666;23.324;2023-11-21T04:25:08;31.58;;;18.77;;
79460;SDS011;68929;42.666;23.324;2023-11-21T04:27:34;30.08;;;20.88;;
79460;SDS011;68929;42.666;23.324;2023-11-21T04:29:59;26.42;;;18.20;;
79460;SDS011;68929;42.666;23.324;2023-11-21T04:32:25;39.05;;;23.25;;
79460;SDS011;68929;42.666;23.324;2023-11-21T04:34:50;29.38;;;21.30;;
79460;SDS011;68929;42.666;23.324;2023-11-21T04:37:16;29.17;;;18.10;;
79460;SDS011;68929;42.666;23.324;2023-11-21T04:39:41;22.35;;;15.15;;
79460;SDS011;68929;42.666;23.324;2023-11-21T04:42:07;23.08;;;16.08;;
79460;SDS011;68929;42.666;23.324;2023-11-21T04:44:32;30.00;;;21.90;;
79460;SDS011;68929;42.666;23.324;2023-11-21T04:46:58;24.98;;;17.20;;
79460;SDS011;68929;42.666;23.324;2023-11-21T04:49:23;21.90;;;15.43;;
79460;SDS011;68929;42.666;23.324;2023-11-21T04:51:48;23.90;;;16.40;;
79460;SDS011;68929;42.666;23.324;2023-11-21T04:54:14;27.95;;;18.23;;
79460;SDS011;68929;42.666;23.324;2023-11-21T04:56:39;33.95;;;22.48;;
79460;SDS011;68929;42.666;23.324;2023-11-21T04:59:05;22.02;;;15.15;;
79460;SDS011;68929;42.666;23.324;2023-11-21T05:01:30;19.70;;;13.75;;
79460;SDS011;68929;42.666;23.324;2023-11-21T05:03:55;32.88;;;20.45;;
79460;SDS011;68929;42.666;23.324;2023-11-21T05:06:22;29.73;;;16.85;;
79460;SDS011;68929;42.666;23.324;2023-11-21T05:08:49;23.27;;;12.65;;
79460;SDS011;68929;42.666;23.324;2023-11-21T05:11:48;31.10;;;20.83;;
79460;SDS011;68929;42.666;23.324;2023-11-21T05:14:06;28.38;;;19.05;;
79460;SDS011;68929;42.666;23.324;2023-11-21T05:16:32;22.58;;;16.23;;
79460;SDS011;68929;42.666;23.324;2023-11-21T05:18:58;19.55;;;13.38;;
79460;SDS011;68929;42.666;23.324;2023-11-21T05:21:26;24.77;;;15.60;;
79460;SDS011;68929;42.666;23.324;2023-11-21T05:23:52;26.70;;;16.55;;
79460;SDS011;68929;42.666;23.324;2023-11-21T05:26:17;24.52;;;17.60;;
79460;SDS011;68929;42.666;23.324;2023-11-21T05:28:43;27.00;;;16.42;;
79460;SDS011;68929;42.666;23.324;2023-11-21T05:31:08;28.70;;;18.40;;
79460;SDS011;68929;42.666;23.324;2023-11-21T05:33:34;21.33;;;14.25;;
79460;SDS011;68929;42.666;23.324;2023-11-21T05:35:59;21.80;;;13.45;;
79460;SDS011;68929;42.666;23.324;2023-11-21T05:38:24;21.17;;;13.65;;
79460;SDS011;68929;42.666;23.324;2023-11-21T05:40:51;29.67;;;14.43;;
79460;SDS011;68929;42.666;23.324;2023-11-21T05:43:16;28.70;;;14.45;;
79460;SDS011;68929;42.666;23.324;2023-11-21T05:45:41;28.02;;;16.10;;
79460;SDS011;68929;42.666;23.324;2023-11-21T05:48:07;30.48;;;13.93;;
79460;SDS011;68929;42.666;23.324;2023-11-21T05:50:32;16.08;;;10.15;;
79460;SDS011;68929;42.666;23.324;2023-11-21T05:52:58;24.15;;;14.25;;
79460;SDS011;68929;42.666;23.324;2023-11-21T05:55:25;29.00;;;12.80;;
79460;SDS011;68929;42.666;23.324;2023-11-21T05:57:51;12.88;;;8.93;;
79460;SDS011;68929;42.666;23.324;2023-11-21T06:00:16;21.00;;;12.70;;
79460;SDS011;68929;42.666;23.324;2023-11-21T06:02:45;23.25;;;13.60;;
79460;SDS011;68929;42.666;23.324;2023-11-21T06:05:15;35.97;;;15.55;;
79460;SDS011;68929;42.666;23.324;2023-11-21T06:07:40;24.15;;;12.27;;
79460;SDS011;68929;42.666;23.324;2023-11-21T06:10:06;25.20;;;12.70;;
79460;SDS011;68929;42.666;23.324;2023-11-21T06:12:36;17.50;;;10.38;;
79460;SDS011;68929;42.666;23.324;2023-11-21T06:15:02;33.33;;;15.82;;
79460;SDS011;68929;42.666;23.324;2023-11-21T06:17:35;34.80;;;15.30;;
79460;SDS011;68929;42.666;23.324;2023-11-21T06:20:05;13.60;;;8.40;;
79460;SDS011;68929;42.666;23.324;2023-11-21T06:22:39;25.35;;;13.25;;
79460;SDS011;68929;42.666;23.324;2023-11-21T06:25:06;27.17;;;11.27;;
79460;SDS011;68929;42.666;23.324;2023-11-21T06:27:33;20.50;;;12.40;;
79460;SDS011;68929;42.666;23.324;2023-11-21T06:30:07;29.27;;;17.17;;
79460;SDS011;68929;42.666;23.324;2023-11-21T06:32:35;20.27;;;11.95;;
79460;SDS011;68929;42.666;23.324;2023-11-21T06:35:03;27.67;;;15.27;;
79460;SDS011;68929;42.666;23.324;2023-11-21T06:37:29;20.70;;;13.10;;
79460;SDS011;68929;42.666;23.324;2023-11-21T06:39:56;33.60;;;13.48;;
79460;SDS011;68929;42.666;23.324;2023-11-21T06:42:23;30.63;;;15.95;;
79460;SDS011;68929;42.666;23.324;2023-11-21T06:44:59;28.08;;;17.15;;
79460;SDS011;68929;42.666;23.324;2023-11-21T06:47:27;32.00;;;15.73;;
79460;SDS011;68929;42.666;23.324;2023-11-21T06:49:54;33.45;;;13.82;;
79460;SDS011;68929;42.666;23.324;2023-11-21T06:52:20;29.25;;;16.60;;
79460;SDS011;68929;42.666;23.324;2023-11-21T06:54:47;34.75;;;17.10;;
79460;SDS011;68929;42.666;23.324;2023-11-21T06:57:16;36.40;;;18.33;;
79460;SDS011;68929;42.666;23.324;2023-11-21T06:59:46;37.42;;;16.65;;
79460;SDS011;68929;42.666;23.324;2023-11-21T07:02:12;36.17;;;16.90;;
79460;SDS011;68929;42.666;23.324;2023-11-21T07:04:38;30.67;;;15.82;;
79460;SDS011;68929;42.666;23.324;2023-11-21T07:07:04;23.98;;;14.55;;
79460;SDS011;68929;42.666;23.324;2023-11-21T07:09:32;13.13;;;9.27;;
79460;SDS011;68929;42.666;23.324;2023-11-21T07:11:57;15.55;;;10.07;;
79460;SDS011;68929;42.666;23.324;2023-11-21T07:14:28;19.63;;;12.30;;
79460;SDS011;68929;42.666;23.324;2023-11-21T07:16:57;15.15;;;8.80;;
79460;SDS011;68929;42.666;23.324;2023-11-21T07:19:23;15.75;;;10.77;;
79460;SDS011;68929;42.666;23.324;2023-11-21T07:21:48;20.73;;;12.65;;
79460;SDS011;68929;42.666;23.324;2023-11-21T07:24:16;20.75;;;13.90;;
79460;SDS011;68929;42.666;23.324;2023-11-21T07:26:44;20.55;;;12.10;;
79460;SDS011;68929;42.666;23.324;2023-11-21T07:29:09;31.10;;;16.45;;
79460;SDS011;68929;42.666;23.324;2023-11-21T07:31:39;33.03;;;19.20;;
79460;SDS011;68929;42.666;23.324;2023-11-21T07:34:06;22.73;;;15.52;;
79460;SDS011;68929;42.666;23.324;2023-11-21T07:36:33;24.77;;;15.88;;
79460;SDS011;68929;42.666;23.324;2023-11-21T07:39:03;29.65;;;17.73;;
79460;SDS011;68929;42.666;23.324;2023-11-21T07:41:32;23.98;;;16.02;;
79460;SDS011;68929;42.666;23.324;2023-11-21T07:43:57;21.58;;;15.63;;
79460;SDS011;68929;42.666;23.324;2023-11-21T07:46:23;37.67;;;19.00;;
79460;SDS011;68929;42.666;23.324;2023-11-21T07:48:49;27.67;;;15.95;;
79460;SDS011;68929;42.666;23.324;2023-11-21T07:51:14;33.30;;;16.70;;
79460;SDS011;68929;42.666;23.324;2023-11-21T07:53:40;28.73;;;16.90;;
79460;SDS011;68929;42.666;23.324;2023-11-21T07:56:06;28.33;;;17.17;;
79460;SDS011;68929;42.666;23.324;2023-11-21T07:58:35;35.10;;;16.50;;
79460;SDS011;68929;42.666;23.324;2023-11-21T08:01:01;26.63;;;16.00;;
79460;SDS011;68929;42.666;23.324;2023-11-21T08:03:31;27.65;;;17.23;;
79460;SDS011;68929;42.666;23.324;2023-11-21T08:05:57;34.78;;;18.25;;
79460;SDS011;68929;42.666;23.324;2023-11-21T08:08:25;36.58;;;20.27;;
79460;SDS011;68929;42.666;23.324;2023-11-21T08:10:51;35.20;;;18.58;;
79460;SDS011;68929;42.666;23.324;2023-11-21T08:13:26;33.97;;;15.43;;
79460;SDS011;68929;42.666;23.324;2023-11-21T08:15:56;30.35;;;18.88;;
79460;SDS011;68929;42.666;23.324;2023-11-21T08:18:31;33.72;;;19.50;;
79460;SDS011;68929;42.666;23.324;2023-11-21T08:20:57;35.17;;;18.23;;
79460;SDS011;68929;42.666;23.324;2023-11-21T08:23:22;31.08;;;17.42;;
79460;SDS011;68929;42.666;23.324;2023-11-21T08:25:57;33.97;;;19.13;;
79460;SDS011;68929;42.666;23.324;2023-11-21T08:28:22;27.63;;;17.13;;
79460;SDS011;68929;42.666;23.324;2023-11-21T08:30:55;35.40;;;19.05;;
79460;SDS011;68929;42.666;23.324;2023-11-21T08:33:29;24.80;;;17.42;;
79460;SDS011;68929;42.666;23.324;2023-11-21T08:35:55;26.80;;;17.90;;
79460;SDS011;68929;42.666;23.324;2023-11-21T08:38:24;27.58;;;16.02;;
79460;SDS011;68929;42.666;23.324;2023-11-21T08:40:49;37.45;;;20.23;;
79460;SDS011;68929;42.666;23.324;2023-11-21T08:43:15;25.88;;;15.73;;
79460;SDS011;68929;42.666;23.324;2023-11-21T08:45:41;38.33;;;20.67;;
79460;SDS011;68929;42.666;23.324;2023-11-21T08:48:08;29.23;;;18.77;;
79460;SDS011;68929;42.666;23.324;2023-11-21T08:50:40;26.38;;;19.13;;
79460;SDS011;68929;42.666;23.324;2023-11-21T08:53:05;28.08;;;15.50;;
79460;SDS011;68929;42.666;23.324;2023-11-21T08:55:30;21.80;;;13.30;;
79460;SDS011;68929;42.666;23.324;2023-11-21T08:57:56;23.05;;;13.60;;
79460;SDS011;68929;42.666;23.324;2023-11-21T09:00:23;22.52;;;15.68;;
79460;SDS011;68929;42.666;23.324;2023-11-21T09:02:49;24.05;;;13.75;;
79460;SDS011;68929;42.666;23.324;2023-11-21T09:05:23;16.58;;;12.25;;
79460;SDS011;68929;42.666;23.324;2023-11-21T09:07:49;21.92;;;13.40;;
79460;SDS011;68929;42.666;23.324;2023-11-21T09:10:18;18.65;;;11.35;;
79460;SDS011;68929;42.666;23.324;2023-11-21T09:12:44;17.65;;;12.18;;
79460;SDS011;68929;42.666;23.324;2023-11-21T09:15:16;14.10;;;10.38;;
79460;SDS011;68929;42.666;23.324;2023-11-21T09:17:45;20.20;;;12.52;;
79460;SDS011;68929;42.666;23.324;2023-11-21T09:20:14;19.13;;;11.70;;
79460;SDS011;68929;42.666;23.324;2023-11-21T09:22:45;21.05;;;14.02;;
79460;SDS011;68929;42.666;23.324;2023-11-21T09:25:11;25.58;;;14.25;;
79460;SDS011;68929;42.666;23.324;2023-11-21T09:27:37;18.13;;;10.55;;
79460;SDS011;68929;42.666;23.324;2023-11-21T09:30:03;17.83;;;13.20;;
79460;SDS011;68929;42.666;23.324;2023-11-21T09:32:38;24.30;;;13.35;;
79460;SDS011;68929;42.666;23.324;2023-11-21T09:35:05;15.85;;;11.35;;
79460;SDS011;68929;42.666;23.324;2023-11-21T09:37:33;19.58;;;14.70;;
79460;SDS011;68929;42.666;23.324;2023-11-21T09:39:59;26.80;;;15.10;;
79460;SDS011;68929;42.666;23.324;2023-11-21T09:42:40;27.17;;;18.70;;
79460;SDS011;68929;42.666;23.324;2023-11-21T09:45:26;23.80;;;15.90;;
79460;SDS011;68929;42.666;23.324;2023-11-21T09:47:56;26.60;;;15.98;;
79460;SDS011;68929;42.666;23.324;2023-11-21T09:50:24;22.42;;;14.70;;
79460;SDS011;68929;42.666;23.324;2023-11-21T09:55:44;26.08;;;16.52;;
79460;SDS011;68929;42.666;23.324;2023-11-21T09:58:32;26.73;;;20.47;;
79460;SDS011;68929;42.666;23.324;2023-11-21T10:01:06;30.83;;;20.92;;
79460;SDS011;68929;42.666;23.324;2023-11-21T10:03:34;22.23;;;16.33;;
79460;SDS011;68929;42.666;23.324;2023-11-21T10:06:07;35.15;;;20.52;;
79460;SDS011;68929;42.666;23.324;2023-11-21T10:08:39;37.28;;;23.55;;
79460;SDS011;68929;42.666;23.324;2023-11-21T10:11:07;25.33;;;15.07;;
79460;SDS011;68929;42.666;23.324;2023-11-21T10:13:38;36.67;;;22.17;;
79460;SDS011;68929;42.666;23.324;2023-11-21T10:16:05;27.48;;;17.60;;
79460;SDS011;68929;42.666;23.324;2023-11-21T10:18:38;23.58;;;17.05;;
79460;SDS011;68929;42.666;23.324;2023-11-21T10:21:06;32.53;;;21.52;;
79460;SDS011;68929;42.666;23.324;2023-11-21T10:23:32;15.98;;;12.55;;
79460;SDS011;68929;42.666;23.324;2023-11-21T10:25:57;18.73;;;13.35;;
79460;SDS011;68929;42.666;23.324;2023-11-21T10:28:25;25.75;;;13.80;;
79460;SDS011;68929;42.666;23.324;2023-11-21T10:30:50;18.65;;;12.25;;
79460;SDS011;68929;42.666;23.324;2023-11-21T10:33:16;17.05;;;12.45;;
79460;SDS011;68929;42.666;23.324;2023-11-21T10:38:07;36.10;;;23.33;;
79460;SDS011;68929;42.666;23.324;2023-11-21T10:40:37;28.13;;;21.90;;
79460;SDS011;68929;42.666;23.324;2023-11-21T10:43:07;32.67;;;22.05;;
79460;SDS011;68929;42.666;23.324;2023-11-21T10:45:39;30.45;;;20.30;;
79460;SDS011;68929;42.666;23.324;2023-11-21T10:48:06;23.15;;;16.00;;
79460;SDS011;68929;42.666;23.324;2023-11-21T10:50:39;33.63;;;22.88;;
79460;SDS011;68929;42.666;23.324;2023-11-21T10:53:07;32.30;;;22.38;;
79460;SDS011;68929;42.666;23.324;2023-11-21T10:55:35;33.78;;;23.30;;
79460;SDS011;68929;42.666;23.324;2023-11-21T10:58:10;40.05;;;24.75;;
79460;SDS011;68929;42.666;23.324;2023-11-21T11:00:38;26.60;;;17.48;;
79460;SDS011;68929;42.666;23.324;2023-11-21T11:03:05;26.95;;;18.05;;
79460;SDS011;68929;42.666;23.324;2023-11-21T11:05:43;23.08;;;17.00;;
79460;SDS011;68929;42.666;23.324;2023-11-21T11:08:16;36.50;;;28.13;;
79460;SDS011;68929;42.666;23.324;2023-11-21T11:10:49;24.90;;;19.60;;
79460;SDS011;68929;42.666;23.324;2023-11-21T11:13:16;36.63;;;26.10;;
79460;SDS011;68929;42.666;23.324;2023-11-21T11:15:49;41.13;;;30.05;;
79460;SDS011;68929;42.666;23.324;2023-11-21T11:18:18;44.20;;;30.08;;
79460;SDS011;68929;42.666;23.324;2023-11-21T11:20:52;31.50;;;18.98;;
79460;SDS011;68929;42.666;23.324;2023-11-21T11:32:19;27.30;;;18.70;;
79460;SDS011;68929;42.666;23.324;2023-11-21T11:35:01;33.88;;;22.40;;
79460;SDS011;68929;42.666;23.324;2023-11-21T11:37:36;30.35;;;22.23;;
79460;SDS011;68929;42.666;23.324;2023-11-21T11:40:06;27.48;;;16.77;;
79460;SDS011;68929;42.666;23.324;2023-11-21T11:42:32;31.90;;;19.63;;
79460;SDS011;68929;42.666;23.324;2023-11-21T11:44:57;27.20;;;17.15;;
79460;SDS011;68929;42.666;23.324;2023-11-21T11:47:23;36.40;;;23.27;;
79460;SDS011;68929;42.666;23.324;2023-11-21T11:50:03;31.65;;;23.08;;
79460;SDS011;68929;42.666;23.324;2023-11-21T11:55:13;38.42;;;25.70;;
79460;SDS011;68929;42.666;23.324;2023-11-21T11:57:41;30.02;;;20.52;;
79460;SDS011;68929;42.666;23.324;2023-11-21T12:00:13;35.83;;;22.80;;
79460;SDS011;68929;42.666;23.324;2023-11-21T12:03:07;31.42;;;22.08;;
79460;SDS011;68929;42.666;23.324;2023-11-21T12:05:39;29.45;;;21.15;;
79460;SDS011;68929;42.666;23.324;2023-11-21T12:08:07;40.63;;;25.73;;
79460;SDS011;68929;42.666;23.324;2023-11-21T12:10:33;32.80;;;25.42;;
79460;SDS011;68929;42.666;23.324;2023-11-21T12:13:08;25.55;;;18.05;;
79460;SDS011;68929;42.666;23.324;2023-11-21T12:15:38;46.20;;;27.37;;
79460;SDS011;68929;42.666;23.324;2023-11-21T12:20:31;36.53;;;25.90;;
79460;SDS011;68929;42.666;23.324;2023-11-21T12:23:07;35.60;;;22.85;;
79460;SDS011;68929;42.666;23.324;2023-11-21T12:25:39;43.08;;;29.83;;
79460;SDS011;68929;42.666;23.324;2023-11-21T12:28:06;40.53;;;26.10;;
79460;SDS011;68929;42.666;23.324;2023-11-21T12:30:35;38.95;;;28.00;;
79460;SDS011;68929;42.666;23.324;2023-11-21T12:33:04;39.97;;;26.95;;
79460;SDS011;68929;42.666;23.324;2023-11-21T12:35:34;44.78;;;26.10;;
79460;SDS011;68929;42.666;23.324;2023-11-21T12:38:05;41.92;;;29.48;;
79460;SDS011;68929;42.666;23.324;2023-11-21T12:40:30;55.20;;;31.73;;
79460;SDS011;68929;42.666;23.324;2023-11-21T12:42:56;41.78;;;27.52;;
79460;SDS011;68929;42.666;23.324;2023-11-21T12:45:27;55.58;;;31.00;;
79460;SDS011;68929;42.666;23.324;2023-11-21T12:47:58;44.58;;;31.75;;
79460;SDS011;68929;42.666;23.324;2023-11-21T12:50:28;35.55;;;26.33;;
79460;SDS011;68929;42.666;23.324;2023-11-21T12:55:30;49.47;;;30.50;;
79460;SDS011;68929;42.666;23.324;2023-11-21T12:58:06;43.05;;;29.02;;
79460;SDS011;68929;42.666;23.324;2023-11-21T13:00:39;38.45;;;27.77;;
79460;SDS011;68929;42.666;23.324;2023-11-21T13:03:10;47.90;;;33.75;;
79460;SDS011;68929;42.666;23.324;2023-11-21T13:05:47;45.75;;;30.45;;
79460;SDS011;68929;42.666;23.324;2023-11-21T13:08:16;42.25;;;30.85;;
79460;SDS011;68929;42.666;23.324;2023-11-21T13:10:45;41.72;;;30.52;;
79460;SDS011;68929;42.666;23.324;2023-11-21T13:13:13;47.10;;;32.72;;
79460;SDS011;68929;42.666;23.324;2023-11-21T13:15:53;43.75;;;30.95;;
79460;SDS011;68929;42.666;23.324;2023-11-21T13:18:22;41.63;;;31.38;;
79460;SDS011;68929;42.666;23.324;2023-11-21T13:20:49;47.53;;;32.25;;
79460;SDS011;68929;42.666;23.324;2023-11-21T13:23:15;51.45;;;32.78;;
79460;SDS011;68929;42.666;23.324;2023-11-21T13:25:50;41.38;;;28.95;;
79460;SDS011;68929;42.666;23.324;2023-11-21T13:28:16;44.45;;;29.42;;
79460;SDS011;68929;42.666;23.324;2023-11-21T13:30:43;37.83;;;27.40;;
79460;SDS011;68929;42.666;23.324;2023-11-21T13:33:09;50.28;;;32.47;;
79460;SDS011;68929;42.666;23.324;2023-11-21T13:35:39;47.83;;;33.85;;
79460;SDS011;68929;42.666;23.324;2023-11-21T13:38:15;48.42;;;33.47;;
79460;SDS011;68929;42.666;23.324;2023-11-21T13:40:46;49.33;;;33.30;;
79460;SDS011;68929;42.666;23.324;2023-11-21T13:43:18;44.85;;;28.27;;
79460;SDS011;68929;42.666;23.324;2023-11-21T13:45:54;34.70;;;28.33;;
79460;SDS011;68929;42.666;23.324;2023-11-21T13:48:31;47.05;;;29.27;;
79460;SDS011;68929;42.666;23.324;2023-11-21T13:51:06;31.65;;;22.77;;
79460;SDS011;68929;42.666;23.324;2023-11-21T13:53:48;40.85;;;28.08;;
79460;SDS011;68929;42.666;23.324;2023-11-21T13:56:17;33.63;;;22.08;;
79460;SDS011;68929;42.666;23.324;2023-11-21T13:58:47;38.65;;;27.33;;
79460;SDS011;68929;42.666;23.324;2023-11-21T14:01:16;47.25;;;29.27;;
79460;SDS011;68929;42.666;23.324;2023-11-21T14:04:08;39.70;;;26.88;;
79460;SDS011;68929;42.666;23.324;2023-11-21T14:06:48;33.85;;;25.40;;
79460;SDS011;68929;42.666;23.324;2023-11-21T14:09:21;41.92;;;29.88;;
79460;SDS011;68929;42.666;23.324;2023-11-21T14:11:52;43.95;;;30.25;;
79460;SDS011;68929;42.666;23.324;2023-11-21T14:14:21;45.63;;;30.90;;
79460;SDS011;68929;42.666;23.324;2023-11-21T14:16:50;42.38;;;30.67;;
79460;SDS011;68929;42.666;23.324;2023-11-21T14:19:17;43.90;;;30.13;;
79460;SDS011;68929;42.666;23.324;2023-11-21T14:21:46;47.67;;;31.85;;
79460;SDS011;68929;42.666;23.324;2023-11-21T14:24:17;48.67;;;33.30;;
79460;SDS011;68929;42.666;23.324;2023-11-21T14:26:43;52.97;;;33.40;;
79460;SDS011;68929;42.666;23.324;2023-11-21T14:29:11;46.55;;;32.78;;
79460;SDS011;68929;42.666;23.324;2023-11-21T14:31:39;43.53;;;28.30;;
79460;SDS011;68929;42.666;23.324;2023-11-21T14:34:06;53.33;;;36.42;;
79460;SDS011;68929;42.666;23.324;2023-11-21T14:36:37;53.20;;;35.03;;